Share

Nags Head, NC

KNCBUXTO2 Elev 42 ft | 35.26 °N, 75.53 °W | Change Station
Active Advisory: High Surf Advisory

Current weather conditions updated 12 minutes ago

Light Rain
Light Rain
51.3 °F
Feels Like 51.3 °F
N
10.0
Wind Variable Wind from NE
Sunrise 6:24 AM
Sunset 7:38 PM
Moon Waning Gibbous

Today is forecast to be Warmer than yesterday. Windy with periods of rain.

Pressure 30.19 in
Visibility 10.0 miles
Clouds Few 700 ft
Mostly Cloudy 10000 ft
Overcast 12000 ft
Dew Point 51 °F
Humidity 98%
Rainfall 0.00 in
Snow Depth Not available.
UV 0 out of 16
Pollen 1.70 out of 12
Air Quality Not available.
Flu Activity Local Activity
METAR KECG 190754Z AUTO 01009KT 10SM -RA FEW007 BKN100 OVC120 09/07 A3019 RMK AO2 RAB48 SLP224 P0000 T00890067 TSNO

More Conditions Fewer Conditions

Pressure 30.19 in
Visibility 10.0 miles
Clouds Few 700 ft
Mostly Cloudy 10000 ft
Overcast 12000 ft
Dew Point 51 °F
Humidity 98%
Rainfall 0.00 in
Snow Depth Not available.
UV 0 out of 16
Pollen 1.70 out of 12
Air Quality Not available.
Flu Activity Local Activity
METAR KECG 190754Z AUTO 01009KT 10SM -RA FEW007 BKN100 OVC120 09/07 A3019 RMK AO2 RAB48 SLP224 P0000 T00890067 TSNO

More Conditions Fewer Conditions

10-Day Weather Forecast

Almanac

Astronomy

Apr. 19, 2014 Rise Set
Actual Time 6:24 AM EDT 7:38 PM EDT
Civil Twilight 5:57 AM EDT 8:04 PM EDT
Nautical Twilight 5:26 AM EDT 8:36 PM EDT
Astronomical Twilight 4:53 AM EDT 9:09 PM EDT
Moon No Moon Rise 9:45 AM EDT
Length of Visible Light 14h 07m
Length of Day
13h 14m
Tomorrow will be 2m 4s longer.
Waning Gibbous, 81% of the Moon is Illuminated
Today
Waning Gibbous
Apr 22
Last Quarter
Apr 29
New
May 6
First Quarter
May 14
Full

Today's Extremes

State Highs State Lows

Community

  • Sunset Silhouettes
    Sunset Silhouettes
  • FL sunset Perico Isle
    FL sunset Perico Isle
  • Cloudy spring view
    Cloudy spring view
  • Old barn
    Old barn
  • What's for Lunch?
    What's for Lunch?

WunderPhotos

Upload Photos

1,702,670 photos uploaded!

WunderBlogs® & News

Nearby

Snow Depth

Station Depth Elevation
No new snow has been reported.

Coastal Water Temperatures

Place Temperature
Oregon Inlet Marina, NC 52.0 °F
Hatteras, NC 57.9 °F
Duck Pier, NC 50.0 °F
Money Point, VA 55.9 °F
Beaufort, NC 57.9 °F
Sewells Point, VA 55.0 °F
Chesapeake Bay Bridge Tunnel, VA 51.1 °F

Earthquake Activity

City Distance Mag. Time & Date
No recent earthquake activity has been reported nearby.
Minimum magnitude displayed is 2.5.

Nearby Weather Stations

Station Location Temp. Windchill Dew Point Humidity Wind Precip. Elev Updated Type
Buxton, NC 51.3 °F - 51 °F 98% NE  at  10.0 mph - / hr 42 ft 3:31 AM EST Normal
The Peninsula, Manteo, NC 48.0 °F 42 °F 47 °F 96% North  at  14.0 mph 0.00 in / hr 10 ft 4:32 AM EDT Normal

Show More Stations Show Fewer Stations

What do you think?

We're not finished. Please let us know what you like, what you don't like, and what you are still missing.